Fidelity, Missouri
Current Conditions -  °F | °C
As of 1:53 PM on Monday 22 Dec 2014 (Local Time) from KJLN Reporting Station
Light Rain Light Rain  
Wind Chill: 45°   Ceiling: 700
Heat Index: 49°   Visibility: 2mi
Dew Point: 48°   Wind: 9mph
Humidity: 97%   Direction: 220°SW
Pressure: 29.49"   Gusts: NA
Location:  37.1542°N, 94.2882°W
Report Text: KJLN 221953Z 22008KT 2SM -RA BR OVC007 09/09 A2949 RMK AO2 RAE22B48 CIG 005V010 SLP986 P0001 T00940089
Loading
Personal Weather Stations






























Interactive Weather Map New forecast layout! Learn more

10-Day Weather Forecast

Advertisements
Track Severe Weather on mobile